createdAt,value
2019-01-20T00:01:13.445Z,31.37
2019-01-20T00:04:02.252Z,32.37
2019-01-20T00:06:55.083Z,31.97
2019-01-20T00:09:44.381Z,32.50
2019-01-20T00:12:33.743Z,32.70
2019-01-20T00:15:22.518Z,31.67
2019-01-20T00:18:10.551Z,32.73
2019-01-20T00:20:59.094Z,30.97
2019-01-20T00:23:49.148Z,29.97
2019-01-20T00:27:09.734Z,31.33
2019-01-20T00:30:36.938Z,31.10
2019-01-20T00:33:47.267Z,28.93
2019-01-20T00:36:35.709Z,28.07
2019-01-20T00:39:29.359Z,29.73
2019-01-20T00:42:18.177Z,27.83
2019-01-20T00:45:08.674Z,28.83
2019-01-20T00:47:57.275Z,29.67
2019-01-20T00:50:45.835Z,29.40
2019-01-20T00:53:33.983Z,28.33
2019-01-20T00:56:22.553Z,29.53
2019-01-20T00:59:11.744Z,30.10
2019-01-20T01:02:01.321Z,28.63
2019-01-20T01:04:50.472Z,29.60
2019-01-20T01:07:40.199Z,28.27
2019-01-20T01:10:28.558Z,28.70
2019-01-20T01:13:18.045Z,28.03
2019-01-20T01:16:06.464Z,28.70
2019-01-20T01:18:55.558Z,27.97
2019-01-20T01:21:44.332Z,27.70
2019-01-20T01:24:33.030Z,27.20
2019-01-20T01:27:22.637Z,27.77
2019-01-20T01:30:15.219Z,26.37
2019-01-20T01:33:03.925Z,27.03
2019-01-20T01:35:52.902Z,25.97
2019-01-20T01:38:41.788Z,28.40
2019-01-20T01:41:31.001Z,26.67
2019-01-20T01:44:19.878Z,24.83
2019-01-20T01:47:09.248Z,26.27
2019-01-20T01:49:57.708Z,26.20
2019-01-20T01:52:46.513Z,25.27
2019-01-20T01:55:34.653Z,26.03
2019-01-20T01:58:23.516Z,27.67
2019-01-20T02:01:12.063Z,24.63
2019-01-20T02:04:01.901Z,26.07
2019-01-20T02:06:50.337Z,24.17
2019-01-20T02:09:39.467Z,25.93
2019-01-20T02:12:28.425Z,25.13
2019-01-20T02:15:18.017Z,25.17
2019-01-20T02:18:07.658Z,24.37
2019-01-20T02:20:56.526Z,23.80
2019-01-20T02:23:45.623Z,23.33
2019-01-20T02:26:34.585Z,24.10
2019-01-20T02:29:23.921Z,24.93
2019-01-20T02:32:13.180Z,23.10
2019-01-20T02:35:02.083Z,23.57
2019-01-20T02:37:51.143Z,23.23
2019-01-20T02:40:39.674Z,23.20
2019-01-20T02:43:27.908Z,24.10
2019-01-20T02:46:16.329Z,23.70
2019-01-20T02:49:05.162Z,23.70
2019-01-20T02:51:54.701Z,24.13
2019-01-20T02:54:43.441Z,22.73
2019-01-20T02:57:32.202Z,23.03
2019-01-20T03:00:23.780Z,24.27
2019-01-20T03:03:14.131Z,23.33
2019-01-20T03:06:01.971Z,22.03
2019-01-20T03:08:50.787Z,23.00
2019-01-20T03:11:39.642Z,23.03
2019-01-20T03:14:28.689Z,22.33
2019-01-20T03:17:17.518Z,23.10
2019-01-20T03:20:08.732Z,23.10
2019-01-20T03:22:57.974Z,22.60
2019-01-20T03:25:47.663Z,23.30
2019-01-20T03:28:37.243Z,22.70
2019-01-20T03:31:25.977Z,22.90
2019-01-20T03:34:16.421Z,22.57
2019-01-20T03:37:05.141Z,22.73
2019-01-20T03:39:54.100Z,22.23
2019-01-20T03:42:43.331Z,22.70
2019-01-20T03:45:33.067Z,22.40
2019-01-20T03:48:21.892Z,22.13
2019-01-20T03:51:11.904Z,21.50
2019-01-20T03:54:00.926Z,23.57
2019-01-20T03:56:50.155Z,21.90
2019-01-20T03:59:39.383Z,21.07
2019-01-20T04:02:29.006Z,21.87
2019-01-20T04:05:18.094Z,22.57
2019-01-20T04:08:06.747Z,21.23
2019-01-20T04:10:56.019Z,21.03
2019-01-20T04:13:44.626Z,21.50
2019-01-20T04:16:33.048Z,21.33
2019-01-20T04:19:21.899Z,21.50
2019-01-20T04:22:11.502Z,20.63
2019-01-20T04:25:00.203Z,20.80
2019-01-20T04:27:48.605Z,19.93
2019-01-20T04:30:37.399Z,20.67
2019-01-20T04:33:26.500Z,20.03
2019-01-20T04:36:21.094Z,20.00
2019-01-20T04:39:10.415Z,20.17
2019-01-20T04:41:59.436Z,19.33
2019-01-20T04:44:47.959Z,18.77
2019-01-20T04:47:36.566Z,18.87
2019-01-20T04:50:25.585Z,18.73
2019-01-20T04:53:14.607Z,17.77
2019-01-20T04:56:03.946Z,18.90
2019-01-20T04:58:52.338Z,18.23
2019-01-20T05:01:40.774Z,18.20
2019-01-20T05:04:29.809Z,17.40
2019-01-20T05:07:18.899Z,18.53
2019-01-20T05:10:09.695Z,18.67
2019-01-20T05:12:58.032Z,18.17
2019-01-20T05:15:46.891Z,19.33
2019-01-20T05:18:35.690Z,17.93
2019-01-20T05:21:24.614Z,18.43
2019-01-20T05:24:13.233Z,17.30
2019-01-20T05:27:02.140Z,17.50
2019-01-20T05:29:50.943Z,17.13
2019-01-20T05:32:39.738Z,17.20
2019-01-20T05:35:28.384Z,17.20
2019-01-20T05:38:17.101Z,17.60
2019-01-20T05:41:05.829Z,17.23
2019-01-20T05:43:56.284Z,16.20
2019-01-20T05:46:45.007Z,16.70
2019-01-20T05:49:35.535Z,16.37
2019-01-20T05:52:25.020Z,16.07
2019-01-20T05:55:14.606Z,16.00
2019-01-20T05:58:03.446Z,15.77
2019-01-20T06:00:52.546Z,15.03
2019-01-20T06:03:41.243Z,15.70
2019-01-20T06:06:30.229Z,16.23
2019-01-20T06:09:19.124Z,16.20
2019-01-20T06:12:08.071Z,15.67
2019-01-20T06:14:56.650Z,14.70
2019-01-20T06:17:45.296Z,15.67
2019-01-20T06:20:33.470Z,15.87
2019-01-20T06:23:22.420Z,15.27
2019-01-20T06:26:11.106Z,15.17
2019-01-20T06:29:00.828Z,15.30
2019-01-20T06:31:49.220Z,15.33
2019-01-20T06:34:38.135Z,15.97
2019-01-20T06:37:26.854Z,15.77
2019-01-20T06:40:15.365Z,16.23
2019-01-20T06:43:05.227Z,14.93
2019-01-20T06:45:54.078Z,15.67
2019-01-20T06:48:43.352Z,14.67
2019-01-20T06:51:34.229Z,15.03
2019-01-20T06:54:22.950Z,15.40
2019-01-20T06:57:12.147Z,15.00
2019-01-20T07:00:00.922Z,15.97
2019-01-20T07:02:50.354Z,14.63
2019-01-20T07:05:40.881Z,15.50
2019-01-20T07:08:30.337Z,15.57
2019-01-20T07:11:19.606Z,14.93
2019-01-20T07:14:08.571Z,15.27
2019-01-20T07:16:58.188Z,14.93
2019-01-20T07:19:46.880Z,15.30
2019-01-20T07:22:35.665Z,15.57
2019-01-20T07:25:25.502Z,15.73
2019-01-20T07:28:14.159Z,15.80
2019-01-20T07:31:03.087Z,15.77
2019-01-20T07:33:51.849Z,17.43
2019-01-20T07:36:40.542Z,16.80
2019-01-20T07:39:29.261Z,17.03
2019-01-20T07:42:19.079Z,16.10
2019-01-20T07:45:10.468Z,16.70
2019-01-20T07:47:59.155Z,15.70
2019-01-20T07:50:48.470Z,16.73
2019-01-20T07:53:37.158Z,17.07
2019-01-20T07:56:25.595Z,15.47
2019-01-20T07:59:15.016Z,16.40
2019-01-20T08:02:04.776Z,17.03
2019-01-20T08:04:54.076Z,15.43
2019-01-20T08:07:43.205Z,16.70
2019-01-20T08:10:31.855Z,16.13
2019-01-20T08:13:24.446Z,16.30
2019-01-20T08:16:10.303Z,16.40
2019-01-20T08:18:59.730Z,17.43
2019-01-20T08:21:51.100Z,16.50
2019-01-20T08:24:44.868Z,16.33
2019-01-20T08:27:33.219Z,16.03
2019-01-20T08:30:23.124Z,16.23
2019-01-20T08:33:12.520Z,15.93
2019-01-20T08:36:00.723Z,15.97
2019-01-20T08:38:50.236Z,14.83
2019-01-20T08:41:39.646Z,15.23
2019-01-20T08:44:31.795Z,15.40
2019-01-20T08:47:34.522Z,15.13
2019-01-20T08:50:22.825Z,15.97
2019-01-20T08:53:11.703Z,19.83
2019-01-20T08:56:00.407Z,19.43
2019-01-20T08:58:49.477Z,16.47
2019-01-20T09:01:42.933Z,15.57
2019-01-20T09:04:55.238Z,16.67
2019-01-20T09:07:46.966Z,16.13
2019-01-20T09:10:36.672Z,17.43
2019-01-20T09:13:30.292Z,16.60
2019-01-20T09:16:19.622Z,16.97
2019-01-20T09:19:08.400Z,17.27
2019-01-20T09:21:57.871Z,16.57
2019-01-20T09:25:07.245Z,16.00
2019-01-20T09:27:56.064Z,15.90
2019-01-20T09:30:47.345Z,15.40
2019-01-20T09:33:37.280Z,14.73
2019-01-20T09:36:29.049Z,15.23
2019-01-20T09:39:22.637Z,12.07
2019-01-20T09:42:12.551Z,13.37
2019-01-20T09:45:01.621Z,12.73
2019-01-20T09:47:49.810Z,12.40
2019-01-20T09:53:48.296Z,10.80
2019-01-20T09:56:37.386Z,10.60
2019-01-20T09:59:26.324Z,10.60
2019-01-20T10:02:15.754Z,10.93
2019-01-20T10:05:04.866Z,10.57
2019-01-20T10:07:53.672Z,10.90
2019-01-20T10:10:45.215Z,10.70
2019-01-20T10:13:34.136Z,12.00
2019-01-20T10:16:23.200Z,11.30
2019-01-20T10:19:12.653Z,11.10
2019-01-20T10:22:01.022Z,11.57
2019-01-20T10:24:49.816Z,10.60
2019-01-20T10:27:39.112Z,11.33
2019-01-20T10:30:30.596Z,11.30
2019-01-20T10:33:21.867Z,14.10
2019-01-20T10:36:16.873Z,14.57
2019-01-20T10:39:11.209Z,14.27
2019-01-20T10:42:02.614Z,14.33
2019-01-20T10:44:53.299Z,14.93
2019-01-20T10:47:43.146Z,14.80
2019-01-20T10:50:31.591Z,14.83
2019-01-20T10:53:20.265Z,14.93
2019-01-20T10:56:10.524Z,14.17
2019-01-20T10:58:58.989Z,13.90
2019-01-20T11:01:51.115Z,14.77
2019-01-20T11:04:42.566Z,14.10
2019-01-20T11:07:31.106Z,13.93
2019-01-20T11:10:48.725Z,14.47
2019-01-20T11:13:38.000Z,14.20
2019-01-20T11:19:58.754Z,14.40
2019-01-20T11:22:48.239Z,13.67
2019-01-20T11:25:39.530Z,14.47
2019-01-20T11:28:28.401Z,13.67
2019-01-20T11:31:16.736Z,13.77
2019-01-20T11:34:05.105Z,13.37
2019-01-20T11:36:54.247Z,13.97
2019-01-20T11:40:04.426Z,13.90
2019-01-20T11:42:53.994Z,14.47
2019-01-20T11:45:43.305Z,14.77
2019-01-20T11:48:32.331Z,14.63
2019-01-20T11:51:20.449Z,15.40
2019-01-20T11:54:11.407Z,16.97
2019-01-20T11:57:02.515Z,18.03
2019-01-20T11:59:51.960Z,18.37
2019-01-20T12:02:40.241Z,18.40
2019-01-20T12:05:29.439Z,18.60
2019-01-20T12:08:17.648Z,20.10
2019-01-20T12:11:06.155Z,18.80
2019-01-20T12:13:54.648Z,19.50
2019-01-20T12:16:43.031Z,18.73
2019-01-20T12:19:31.321Z,20.23
2019-01-20T12:22:19.700Z,19.43
2019-01-20T12:25:11.633Z,19.60
2019-01-20T12:28:00.731Z,21.00
2019-01-20T12:30:53.034Z,20.83
2019-01-20T12:33:42.258Z,19.87
2019-01-20T12:36:30.450Z,19.30
2019-01-20T12:39:19.313Z,20.87
2019-01-20T12:42:07.972Z,21.50
2019-01-20T12:44:56.970Z,22.17
2019-01-20T12:47:45.517Z,21.63
2019-01-20T12:50:34.615Z,22.50
2019-01-20T12:53:23.856Z,23.47
2019-01-20T12:56:12.576Z,22.87
2019-01-20T12:59:01.511Z,22.30
2019-01-20T13:01:50.837Z,22.57
2019-01-20T13:04:38.652Z,22.67
2019-01-20T13:07:27.742Z,21.57
2019-01-20T13:10:21.089Z,22.53
2019-01-20T13:13:13.416Z,23.60
2019-01-20T13:16:02.017Z,24.00
2019-01-20T13:18:51.168Z,21.97
2019-01-20T13:21:39.458Z,22.73
2019-01-20T13:24:28.315Z,22.07
2019-01-20T13:27:17.587Z,22.57
2019-01-20T13:30:09.673Z,22.37
2019-01-20T13:32:58.795Z,21.90
2019-01-20T13:35:47.648Z,23.63
2019-01-20T13:38:37.342Z,23.83
2019-01-20T13:41:33.684Z,24.40
2019-01-20T13:44:22.731Z,23.33
2019-01-20T13:47:11.658Z,22.50
2019-01-20T13:49:59.903Z,23.43
2019-01-20T13:52:49.261Z,22.57
2019-01-20T13:55:38.870Z,21.97
2019-01-20T13:58:29.086Z,21.83
2019-01-20T14:01:18.215Z,22.20
2019-01-20T14:04:07.206Z,20.93
2019-01-20T14:06:57.803Z,22.47
2019-01-20T14:09:46.588Z,21.60
2019-01-20T14:12:35.116Z,21.50
2019-01-20T14:15:23.617Z,22.70
2019-01-20T14:18:12.508Z,22.60
2019-01-20T14:21:01.249Z,22.43
2019-01-20T14:23:50.335Z,21.80
2019-01-20T14:26:39.297Z,21.43
2019-01-20T14:29:28.929Z,27.17
2019-01-20T14:32:18.319Z,23.90
2019-01-20T14:35:08.658Z,22.67
2019-01-20T14:37:56.525Z,21.87
2019-01-20T14:40:45.520Z,22.40
2019-01-20T14:43:34.863Z,20.73
2019-01-20T14:46:23.256Z,21.73
2019-01-20T14:49:11.800Z,20.37
2019-01-20T14:52:00.393Z,21.33
2019-01-20T14:54:49.681Z,21.97
2019-01-20T14:57:38.796Z,22.00
2019-01-20T15:00:35.447Z,20.57
2019-01-20T15:03:24.762Z,22.70
2019-01-20T15:06:18.798Z,21.23
2019-01-20T15:09:11.540Z,21.23
2019-01-20T15:12:03.146Z,23.10
2019-01-20T15:14:57.050Z,23.30
2019-01-20T15:17:45.393Z,24.90
2019-01-20T15:20:34.660Z,24.33
2019-01-20T15:23:23.887Z,27.13
2019-01-20T15:26:13.174Z,26.40
2019-01-20T15:29:01.527Z,25.83
2019-01-20T15:31:49.957Z,25.63
2019-01-20T15:34:38.848Z,25.23
2019-01-20T15:37:28.534Z,26.30
2019-01-20T15:40:18.986Z,26.67
2019-01-20T15:43:07.340Z,25.27
2019-01-20T15:45:55.953Z,26.93
2019-01-20T15:48:44.405Z,25.93
2019-01-20T15:51:33.502Z,26.90
2019-01-20T15:54:22.437Z,28.30
2019-01-20T15:57:10.870Z,28.43
2019-01-20T15:59:59.284Z,29.03
2019-01-20T16:02:48.025Z,29.57
2019-01-20T16:05:43.386Z,28.60
2019-01-20T16:08:31.694Z,29.40
2019-01-20T16:11:20.820Z,30.50
2019-01-20T16:14:11.093Z,29.03
2019-01-20T16:17:00.157Z,29.40
2019-01-20T16:19:49.497Z,28.53
2019-01-20T16:22:38.807Z,30.17
2019-01-20T16:25:30.759Z,29.83
2019-01-20T16:28:19.912Z,30.97
2019-01-20T16:31:08.318Z,29.50
2019-01-20T16:33:57.225Z,30.60
2019-01-20T16:36:45.557Z,30.17
2019-01-20T16:39:33.963Z,29.70
2019-01-20T16:42:22.582Z,29.63
2019-01-20T16:45:13.585Z,31.17
2019-01-20T16:48:01.983Z,31.90
2019-01-20T16:50:51.552Z,29.97
2019-01-20T16:53:39.866Z,30.87
2019-01-20T16:56:48.889Z,29.20
2019-01-20T16:59:38.116Z,28.57
2019-01-20T17:02:27.516Z,28.73
2019-01-20T17:05:15.821Z,27.57
2019-01-20T17:08:04.879Z,27.90
2019-01-20T17:10:53.978Z,28.47
2019-01-20T17:13:42.319Z,28.47
2019-01-20T17:16:32.610Z,28.60
2019-01-20T17:19:21.379Z,29.40
2019-01-20T17:22:09.927Z,29.47
2019-01-20T17:24:58.796Z,28.87
2019-01-20T17:27:47.224Z,30.53
2019-01-20T17:30:35.666Z,30.27
2019-01-20T17:33:24.283Z,30.17
2019-01-20T17:36:13.809Z,34.57
2019-01-20T17:39:03.586Z,35.07
2019-01-20T17:41:52.077Z,35.70
2019-01-20T17:44:40.336Z,34.40
2019-01-20T17:47:29.078Z,35.27
2019-01-20T17:50:23.219Z,36.00
2019-01-20T17:53:12.482Z,37.17
2019-01-20T17:56:01.078Z,35.90
2019-01-20T17:58:50.417Z,37.70
2019-01-20T18:01:39.441Z,37.50
2019-01-20T18:04:28.133Z,41.73
2019-01-20T18:07:16.226Z,40.47
2019-01-20T18:10:06.551Z,41.57
2019-01-20T18:12:55.040Z,40.90
2019-01-20T18:15:43.933Z,41.47
2019-01-20T18:18:33.266Z,41.97
2019-01-20T18:21:25.286Z,43.07
2019-01-20T18:24:16.236Z,43.03
2019-01-20T18:27:05.659Z,41.40
2019-01-20T18:29:55.588Z,42.47
2019-01-20T18:32:44.888Z,42.83
2019-01-20T18:35:34.028Z,41.50
2019-01-20T18:38:22.665Z,42.77
2019-01-20T18:41:11.428Z,42.40
2019-01-20T18:44:00.278Z,43.97
2019-01-20T18:46:48.896Z,42.93
2019-01-20T18:49:38.075Z,42.47
2019-01-20T18:52:26.940Z,42.43
2019-01-20T18:55:15.381Z,42.67
2019-01-20T18:58:04.589Z,42.97
2019-01-20T19:00:53.835Z,42.73
2019-01-20T19:03:42.590Z,43.03
2019-01-20T19:06:31.811Z,44.93
2019-01-20T19:09:20.664Z,43.90
2019-01-20T19:12:08.655Z,45.63
2019-01-20T19:14:57.328Z,44.10
2019-01-20T19:17:46.160Z,47.23
2019-01-20T19:20:35.316Z,45.93
2019-01-20T19:23:24.300Z,47.50
2019-01-20T19:26:13.406Z,45.87
2019-01-20T19:29:03.118Z,47.83
2019-01-20T19:31:55.799Z,47.33
2019-01-20T19:34:45.254Z,47.57
2019-01-20T19:37:33.946Z,46.40
2019-01-20T19:40:22.369Z,48.27
2019-01-20T19:43:15.119Z,48.43
2019-01-20T19:46:04.027Z,47.60
2019-01-20T19:48:52.915Z,48.27
2019-01-20T19:51:41.951Z,47.00
2019-01-20T19:54:33.633Z,47.03
2019-01-20T19:57:22.498Z,46.73
2019-01-20T20:00:13.866Z,47.73
2019-01-20T20:03:03.351Z,47.63
2019-01-20T20:05:51.833Z,47.40
2019-01-20T20:09:03.571Z,47.43
2019-01-20T20:11:53.730Z,45.23
2019-01-20T20:14:42.682Z,45.87
2019-01-20T20:17:31.420Z,46.87
2019-01-20T20:20:20.477Z,45.23
2019-01-20T20:23:09.199Z,46.47
2019-01-20T20:25:58.153Z,46.13
2019-01-20T20:28:46.479Z,46.67
2019-01-20T20:31:35.086Z,44.93
2019-01-20T20:34:23.783Z,47.30
2019-01-20T20:37:12.129Z,46.73
2019-01-20T20:40:01.085Z,45.43
2019-01-20T20:42:49.816Z,45.80
2019-01-20T20:45:39.089Z,46.40
2019-01-20T20:48:27.524Z,44.87
2019-01-20T20:51:16.280Z,45.00
2019-01-20T20:54:06.388Z,47.73
2019-01-20T20:56:55.607Z,47.33
2019-01-20T20:59:45.046Z,46.17
2019-01-20T21:02:33.458Z,45.00
2019-01-20T21:05:21.993Z,47.23
2019-01-20T21:08:11.418Z,44.43
2019-01-20T21:11:00.433Z,45.00
2019-01-20T21:13:49.931Z,45.00
2019-01-20T21:16:38.726Z,45.27
2019-01-20T21:19:28.822Z,44.70
2019-01-20T21:22:17.525Z,44.97
2019-01-20T21:25:08.439Z,44.30
2019-01-20T21:27:57.898Z,44.00
2019-01-20T21:30:46.927Z,45.37
2019-01-20T21:33:35.183Z,44.60
2019-01-20T21:36:23.867Z,46.50
2019-01-20T21:39:13.367Z,45.10
2019-01-20T21:42:01.778Z,46.50
2019-01-20T21:45:09.912Z,45.73
2019-01-20T21:48:22.069Z,46.17
2019-01-20T21:51:10.873Z,46.67
2019-01-20T21:54:00.478Z,45.63
2019-01-20T21:56:49.607Z,45.63
2019-01-20T21:59:38.730Z,46.77
2019-01-20T22:02:27.590Z,48.07
2019-01-20T22:05:19.479Z,48.50
2019-01-20T22:08:08.978Z,46.40
2019-01-20T22:10:57.219Z,45.87
2019-01-20T22:13:46.230Z,46.50
2019-01-20T22:16:35.101Z,45.77
2019-01-20T22:19:23.432Z,46.27
2019-01-20T22:22:12.564Z,45.33
2019-01-20T22:25:01.798Z,45.77
2019-01-20T22:27:50.765Z,46.27
2019-01-20T22:30:39.640Z,44.90
2019-01-20T22:33:28.521Z,46.60
2019-01-20T22:36:17.163Z,46.37
2019-01-20T22:39:07.875Z,45.97
2019-01-20T22:41:56.578Z,46.63
2019-01-20T22:44:44.782Z,45.73
2019-01-20T22:47:34.322Z,45.93
2019-01-20T22:50:24.904Z,44.90
2019-01-20T22:53:13.341Z,44.30
2019-01-20T22:56:04.310Z,43.53
2019-01-20T22:58:52.808Z,44.87
2019-01-20T23:01:41.830Z,46.80
2019-01-20T23:04:30.933Z,45.87
2019-01-20T23:07:20.058Z,45.33
2019-01-20T23:10:09.395Z,45.67
2019-01-20T23:12:57.723Z,45.73
2019-01-20T23:15:47.101Z,45.87
2019-01-20T23:18:35.727Z,45.43
2019-01-20T23:21:26.023Z,45.03
2019-01-20T23:24:14.422Z,46.73
2019-01-20T23:27:02.899Z,44.87
2019-01-20T23:29:52.253Z,46.47
2019-01-20T23:32:41.715Z,45.27
2019-01-20T23:35:33.088Z,47.20
2019-01-20T23:38:21.514Z,45.47
2019-01-20T23:41:11.619Z,46.37
2019-01-20T23:44:00.448Z,46.53
2019-01-20T23:46:49.573Z,46.60
2019-01-20T23:49:37.929Z,47.10
2019-01-20T23:52:26.190Z,44.93
2019-01-20T23:55:14.312Z,46.10
2019-01-20T23:58:03.334Z,47.43
